sensor_id;sensor_type;location;lat;lon;timestamp;pressure;altitude;pressure_sealevel;temperature;humidity
61478;BME280;47345;52.334;10.392;2022-12-29T00:01:34;99664.23;;;8.66;82.81
61478;BME280;47345;52.334;10.392;2022-12-29T00:04:06;99668.25;;;8.67;82.82
61478;BME280;47345;52.334;10.392;2022-12-29T00:06:43;99667.48;;;8.69;82.82
61478;BME280;47345;52.334;10.392;2022-12-29T00:09:15;99665.52;;;8.69;82.74
61478;BME280;47345;52.334;10.392;2022-12-29T00:11:47;99660.80;;;8.71;82.80
61478;BME280;47345;52.334;10.392;2022-12-29T00:14:20;99661.89;;;8.73;82.96
61478;BME280;47345;52.334;10.392;2022-12-29T00:17:10;99656.41;;;8.74;82.80
61478;BME280;47345;52.334;10.392;2022-12-29T00:19:43;99661.15;;;8.75;82.77
61478;BME280;47345;52.334;10.392;2022-12-29T00:22:31;99658.17;;;8.76;82.86
61478;BME280;47345;52.334;10.392;2022-12-29T00:25:20;99651.11;;;8.77;82.76
61478;BME280;47345;52.334;10.392;2022-12-29T00:28:14;99650.36;;;8.77;82.79
61478;BME280;47345;52.334;10.392;2022-12-29T00:31:03;99656.01;;;8.78;82.81
61478;BME280;47345;52.334;10.392;2022-12-29T00:33:55;99654.88;;;8.78;82.83
61478;BME280;47345;52.334;10.392;2022-12-29T00:36:46;99650.21;;;8.79;82.93
61478;BME280;47345;52.334;10.392;2022-12-29T00:39:18;99647.58;;;8.79;82.79
61478;BME280;47345;52.334;10.392;2022-12-29T00:42:07;99639.84;;;8.81;82.95
61478;BME280;47345;52.334;10.392;2022-12-29T00:44:55;99637.97;;;8.82;83.03
61478;BME280;47345;52.334;10.392;2022-12-29T00:47:28;99630.75;;;8.83;82.94
61478;BME280;47345;52.334;10.392;2022-12-29T00:49:59;99628.24;;;8.83;83.06
61478;BME280;47345;52.334;10.392;2022-12-29T00:52:29;99628.40;;;8.84;83.04
61478;BME280;47345;52.334;10.392;2022-12-29T00:55:00;99628.55;;;8.86;83.01
61478;BME280;47345;52.334;10.392;2022-12-29T00:57:33;99629.41;;;8.87;82.99
61478;BME280;47345;52.334;10.392;2022-12-29T01:00:04;99630.80;;;8.88;83.05
61478;BME280;47345;52.334;10.392;2022-12-29T01:02:35;99624.79;;;8.89;83.05
61478;BME280;47345;52.334;10.392;2022-12-29T01:05:06;99624.15;;;8.90;83.11
61478;BME280;47345;52.334;10.392;2022-12-29T01:07:37;99625.45;;;8.91;82.96
61478;BME280;47345;52.334;10.392;2022-12-29T01:10:09;99629.60;;;8.91;83.10
61478;BME280;47345;52.334;10.392;2022-12-29T01:12:43;99629.71;;;8.93;82.95
61478;BME280;47345;52.334;10.392;2022-12-29T01:15:15;99622.86;;;8.94;82.96
61478;BME280;47345;52.334;10.392;2022-12-29T01:17:46;99626.55;;;8.95;83.02
61478;BME280;47345;52.334;10.392;2022-12-29T01:20:17;99618.98;;;8.95;82.85
61478;BME280;47345;52.334;10.392;2022-12-29T01:22:48;99611.98;;;8.96;82.86
61478;BME280;47345;52.334;10.392;2022-12-29T01:25:18;99604.48;;;8.97;82.89
61478;BME280;47345;52.334;10.392;2022-12-29T01:27:48;99603.14;;;8.98;82.91
61478;BME280;47345;52.334;10.392;2022-12-29T01:30:19;99607.20;;;8.99;82.93
61478;BME280;47345;52.334;10.392;2022-12-29T01:32:50;99597.64;;;8.98;83.02
61478;BME280;47345;52.334;10.392;2022-12-29T01:35:21;99595.38;;;8.99;83.01
61478;BME280;47345;52.334;10.392;2022-12-29T01:37:51;99591.98;;;8.99;82.98
61478;BME280;47345;52.334;10.392;2022-12-29T01:40:22;99584.95;;;8.99;83.02
61478;BME280;47345;52.334;10.392;2022-12-29T01:42:52;99589.24;;;8.98;83.07
61478;BME280;47345;52.334;10.392;2022-12-29T01:45:23;99586.27;;;8.98;83.07
61478;BME280;47345;52.334;10.392;2022-12-29T01:47:56;99583.21;;;8.97;83.19
61478;BME280;47345;52.334;10.392;2022-12-29T01:50:30;99583.77;;;8.96;83.27
61478;BME280;47345;52.334;10.392;2022-12-29T01:53:05;99579.91;;;8.95;83.29
61478;BME280;47345;52.334;10.392;2022-12-29T01:55:41;99571.66;;;8.95;83.47
61478;BME280;47345;52.334;10.392;2022-12-29T01:58:14;99557.77;;;8.94;83.67
61478;BME280;47345;52.334;10.392;2022-12-29T02:00:48;99556.95;;;8.93;83.60
61478;BME280;47345;52.334;10.392;2022-12-29T02:03:20;99557.05;;;8.91;83.69
61478;BME280;47345;52.334;10.392;2022-12-29T02:05:55;99554.26;;;8.89;83.74
61478;BME280;47345;52.334;10.392;2022-12-29T02:08:28;99553.36;;;8.86;83.82
61478;BME280;47345;52.334;10.392;2022-12-29T02:11:00;99546.17;;;8.83;83.89
61478;BME280;47345;52.334;10.392;2022-12-29T02:13:31;99547.95;;;8.81;83.96
61478;BME280;47345;52.334;10.392;2022-12-29T02:16:08;99547.63;;;8.77;83.98
61478;BME280;47345;52.334;10.392;2022-12-29T02:18:51;99539.08;;;8.76;84.27
61478;BME280;47345;52.334;10.392;2022-12-29T02:21:43;99537.21;;;8.74;84.17
61478;BME280;47345;52.334;10.392;2022-12-29T02:24:37;99536.91;;;8.71;84.33
61478;BME280;47345;52.334;10.392;2022-12-29T02:27:48;99536.85;;;8.67;84.47
61478;BME280;47345;52.334;10.392;2022-12-29T02:30:44;99532.75;;;8.65;84.78
61478;BME280;47345;52.334;10.392;2022-12-29T02:33:23;99530.83;;;8.65;84.99
61478;BME280;47345;52.334;10.392;2022-12-29T02:36:04;99523.86;;;8.66;85.12
61478;BME280;47345;52.334;10.392;2022-12-29T02:38:50;99520.80;;;8.65;85.09
61478;BME280;47345;52.334;10.392;2022-12-29T02:41:25;99522.44;;;8.65;85.24
61478;BME280;47345;52.334;10.392;2022-12-29T02:44:07;99515.70;;;8.64;85.22
61478;BME280;47345;52.334;10.392;2022-12-29T02:46:47;99517.73;;;8.63;85.27
61478;BME280;47345;52.334;10.392;2022-12-29T02:49:26;99520.63;;;8.62;85.31
61478;BME280;47345;52.334;10.392;2022-12-29T02:52:05;99516.48;;;8.60;85.56
61478;BME280;47345;52.334;10.392;2022-12-29T02:54:38;99517.27;;;8.59;85.52
61478;BME280;47345;52.334;10.392;2022-12-29T02:57:27;99520.52;;;8.59;85.72
61478;BME280;47345;52.334;10.392;2022-12-29T03:00:01;99514.61;;;8.59;86.00
61478;BME280;47345;52.334;10.392;2022-12-29T03:02:44;99517.98;;;8.61;86.00
61478;BME280;47345;52.334;10.392;2022-12-29T03:05:27;99518.64;;;8.63;86.01
61478;BME280;47345;52.334;10.392;2022-12-29T03:08:06;99519.41;;;8.66;86.09
61478;BME280;47345;52.334;10.392;2022-12-29T03:10:50;99507.67;;;8.69;86.01
61478;BME280;47345;52.334;10.392;2022-12-29T03:13:26;99504.80;;;8.72;85.98
61478;BME280;47345;52.334;10.392;2022-12-29T03:16:22;99502.29;;;8.75;85.85
61478;BME280;47345;52.334;10.392;2022-12-29T03:19:00;99506.50;;;8.77;85.81
61478;BME280;47345;52.334;10.392;2022-12-29T03:21:36;99506.95;;;8.79;85.92
61478;BME280;47345;52.334;10.392;2022-12-29T03:24:27;99505.12;;;8.82;85.68
61478;BME280;47345;52.334;10.392;2022-12-29T03:27:01;99501.43;;;8.85;85.74
61478;BME280;47345;52.334;10.392;2022-12-29T03:29:38;99497.70;;;8.89;85.63
61478;BME280;47345;52.334;10.392;2022-12-29T03:32:11;99497.67;;;8.92;85.59
61478;BME280;47345;52.334;10.392;2022-12-29T03:34:42;99495.20;;;8.95;85.58
61478;BME280;47345;52.334;10.392;2022-12-29T03:37:16;99495.21;;;8.97;85.57
61478;BME280;47345;52.334;10.392;2022-12-29T03:39:47;99484.81;;;9.00;85.52
61478;BME280;47345;52.334;10.392;2022-12-29T03:42:19;99481.92;;;9.02;85.51
61478;BME280;47345;52.334;10.392;2022-12-29T03:44:54;99478.96;;;9.06;85.48
61478;BME280;47345;52.334;10.392;2022-12-29T03:47:26;99473.82;;;9.07;85.48
61478;BME280;47345;52.334;10.392;2022-12-29T03:49:57;99471.86;;;9.09;85.49
61478;BME280;47345;52.334;10.392;2022-12-29T03:52:28;99466.67;;;9.11;85.42
61478;BME280;47345;52.334;10.392;2022-12-29T03:54:59;99459.14;;;9.13;85.62
61478;BME280;47345;52.334;10.392;2022-12-29T03:57:29;99459.44;;;9.13;85.55
61478;BME280;47345;52.334;10.392;2022-12-29T03:59:59;99447.84;;;9.14;85.63
61478;BME280;47345;52.334;10.392;2022-12-29T04:02:30;99444.48;;;9.13;85.61
61478;BME280;47345;52.334;10.392;2022-12-29T04:05:01;99444.53;;;9.13;85.65
61478;BME280;47345;52.334;10.392;2022-12-29T04:07:31;99448.27;;;9.12;85.96
61478;BME280;47345;52.334;10.392;2022-12-29T04:10:01;99452.98;;;9.11;85.98
61478;BME280;47345;52.334;10.392;2022-12-29T04:12:33;99451.33;;;9.10;86.10
61478;BME280;47345;52.334;10.392;2022-12-29T04:15:05;99447.35;;;9.09;86.14
61478;BME280;47345;52.334;10.392;2022-12-29T04:17:35;99441.04;;;9.07;86.19
61478;BME280;47345;52.334;10.392;2022-12-29T04:20:07;99445.11;;;9.07;86.32
61478;BME280;47345;52.334;10.392;2022-12-29T04:23:00;99447.30;;;9.05;86.46
61478;BME280;47345;52.334;10.392;2022-12-29T04:25:31;99447.23;;;9.05;86.52
61478;BME280;47345;52.334;10.392;2022-12-29T04:28:02;99450.48;;;9.04;86.56
61478;BME280;47345;52.334;10.392;2022-12-29T04:30:33;99455.69;;;9.03;86.56
61478;BME280;47345;52.334;10.392;2022-12-29T04:33:04;99453.95;;;9.01;86.67
61478;BME280;47345;52.334;10.392;2022-12-29T04:35:35;99459.67;;;9.00;86.61
61478;BME280;47345;52.334;10.392;2022-12-29T04:38:05;99456.49;;;9.00;86.89
61478;BME280;47345;52.334;10.392;2022-12-29T04:40:37;99448.82;;;9.00;86.96
61478;BME280;47345;52.334;10.392;2022-12-29T04:43:07;99449.48;;;9.03;87.05
61478;BME280;47345;52.334;10.392;2022-12-29T04:45:39;99453.98;;;9.06;86.84
61478;BME280;47345;52.334;10.392;2022-12-29T04:48:13;99456.31;;;9.07;86.70
61478;BME280;47345;52.334;10.392;2022-12-29T04:50:46;99451.46;;;9.09;86.84
61478;BME280;47345;52.334;10.392;2022-12-29T04:53:18;99451.64;;;9.12;86.86
61478;BME280;47345;52.334;10.392;2022-12-29T04:55:51;99450.56;;;9.14;86.59
61478;BME280;47345;52.334;10.392;2022-12-29T04:58:23;99454.13;;;9.17;86.61
61478;BME280;47345;52.334;10.392;2022-12-29T05:00:53;99450.29;;;9.20;86.55
61478;BME280;47345;52.334;10.392;2022-12-29T05:03:23;99455.45;;;9.23;86.46
61478;BME280;47345;52.334;10.392;2022-12-29T05:05:56;99449.90;;;9.24;86.32
61478;BME280;47345;52.334;10.392;2022-12-29T05:08:27;99452.80;;;9.26;86.26
61478;BME280;47345;52.334;10.392;2022-12-29T05:10:57;99451.36;;;9.27;86.31
61478;BME280;47345;52.334;10.392;2022-12-29T05:13:27;99445.13;;;9.29;86.25
61478;BME280;47345;52.334;10.392;2022-12-29T05:15:58;99443.90;;;9.29;86.29
61478;BME280;47345;52.334;10.392;2022-12-29T05:18:29;99446.95;;;9.31;86.13
61478;BME280;47345;52.334;10.392;2022-12-29T05:20:59;99441.08;;;9.33;86.01
61478;BME280;47345;52.334;10.392;2022-12-29T05:23:30;99437.48;;;9.35;85.91
61478;BME280;47345;52.334;10.392;2022-12-29T05:26:00;99440.41;;;9.36;85.73
61478;BME280;47345;52.334;10.392;2022-12-29T05:28:31;99438.92;;;9.37;85.62
61478;BME280;47345;52.334;10.392;2022-12-29T05:31:01;99436.67;;;9.39;85.49
61478;BME280;47345;52.334;10.392;2022-12-29T05:33:32;99435.65;;;9.40;85.29
61478;BME280;47345;52.334;10.392;2022-12-29T05:36:07;99436.59;;;9.40;85.26
61478;BME280;47345;52.334;10.392;2022-12-29T05:38:38;99435.25;;;9.39;85.22
61478;BME280;47345;52.334;10.392;2022-12-29T05:41:08;99434.23;;;9.40;85.24
61478;BME280;47345;52.334;10.392;2022-12-29T05:43:40;99434.86;;;9.40;85.26
61478;BME280;47345;52.334;10.392;2022-12-29T05:46:10;99428.84;;;9.40;85.14
61478;BME280;47345;52.334;10.392;2022-12-29T05:48:41;99423.29;;;9.41;85.01
61478;BME280;47345;52.334;10.392;2022-12-29T05:51:11;99424.77;;;9.42;85.05
61478;BME280;47345;52.334;10.392;2022-12-29T05:53:42;99425.27;;;9.43;84.97
61478;BME280;47345;52.334;10.392;2022-12-29T05:56:12;99430.80;;;9.44;85.02
61478;BME280;47345;52.334;10.392;2022-12-29T05:58:43;99426.64;;;9.45;84.86
61478;BME280;47345;52.334;10.392;2022-12-29T06:01:13;99430.04;;;9.46;84.85
61478;BME280;47345;52.334;10.392;2022-12-29T06:03:45;99431.81;;;9.48;84.77
61478;BME280;47345;52.334;10.392;2022-12-29T06:06:17;99426.52;;;9.50;84.64
61478;BME280;47345;52.334;10.392;2022-12-29T06:08:48;99426.30;;;9.51;84.75
61478;BME280;47345;52.334;10.392;2022-12-29T06:11:19;99425.02;;;9.53;84.64
61478;BME280;47345;52.334;10.392;2022-12-29T06:13:49;99426.73;;;9.53;84.75
61478;BME280;47345;52.334;10.392;2022-12-29T06:16:20;99421.49;;;9.54;84.86
61478;BME280;47345;52.334;10.392;2022-12-29T06:18:51;99421.51;;;9.54;84.87
61478;BME280;47345;52.334;10.392;2022-12-29T06:21:21;99421.84;;;9.54;84.93
61478;BME280;47345;52.334;10.392;2022-12-29T06:23:52;99421.82;;;9.56;85.01
61478;BME280;47345;52.334;10.392;2022-12-29T06:26:23;99418.85;;;9.57;85.16
61478;BME280;47345;52.334;10.392;2022-12-29T06:28:53;99418.71;;;9.58;85.22
61478;BME280;47345;52.334;10.392;2022-12-29T06:31:23;99415.58;;;9.59;85.34
61478;BME280;47345;52.334;10.392;2022-12-29T06:33:54;99405.99;;;9.60;85.34
61478;BME280;47345;52.334;10.392;2022-12-29T06:36:24;99403.66;;;9.61;85.45
61478;BME280;47345;52.334;10.392;2022-12-29T06:38:55;99393.73;;;9.59;85.36
61478;BME280;47345;52.334;10.392;2022-12-29T06:41:26;99397.48;;;9.59;85.46
61478;BME280;47345;52.334;10.392;2022-12-29T06:44:00;99399.58;;;9.57;85.41
61478;BME280;47345;52.334;10.392;2022-12-29T06:46:31;99398.86;;;9.55;85.68
61478;BME280;47345;52.334;10.392;2022-12-29T06:49:02;99403.21;;;9.51;85.82
61478;BME280;47345;52.334;10.392;2022-12-29T06:51:32;99402.77;;;9.49;86.06
61478;BME280;47345;52.334;10.392;2022-12-29T06:54:03;99397.74;;;9.49;86.16
61478;BME280;47345;52.334;10.392;2022-12-29T06:56:33;99400.68;;;9.49;86.30
61478;BME280;47345;52.334;10.392;2022-12-29T06:59:04;99395.67;;;9.49;86.54
61478;BME280;47345;52.334;10.392;2022-12-29T07:01:35;99401.80;;;9.52;86.76
61478;BME280;47345;52.334;10.392;2022-12-29T07:04:06;99399.27;;;9.53;86.65
61478;BME280;47345;52.334;10.392;2022-12-29T07:06:37;99402.70;;;9.55;86.69
61478;BME280;47345;52.334;10.392;2022-12-29T07:09:10;99400.27;;;9.58;86.60
61478;BME280;47345;52.334;10.392;2022-12-29T07:11:40;99397.70;;;9.61;86.64
61478;BME280;47345;52.334;10.392;2022-12-29T07:14:12;99396.49;;;9.63;86.57
61478;BME280;47345;52.334;10.392;2022-12-29T07:16:43;99394.34;;;9.64;86.64
61478;BME280;47345;52.334;10.392;2022-12-29T07:19:13;99399.06;;;9.65;86.55
61478;BME280;47345;52.334;10.392;2022-12-29T07:21:44;99394.61;;;9.66;86.56
61478;BME280;47345;52.334;10.392;2022-12-29T07:24:14;99403.30;;;9.66;86.56
61478;BME280;47345;52.334;10.392;2022-12-29T07:26:45;99411.09;;;9.65;86.47
61478;BME280;47345;52.334;10.392;2022-12-29T07:29:16;99409.17;;;9.66;86.62
61478;BME280;47345;52.334;10.392;2022-12-29T07:31:46;99403.59;;;9.67;86.66
61478;BME280;47345;52.334;10.392;2022-12-29T07:34:17;99398.42;;;9.68;86.61
61478;BME280;47345;52.334;10.392;2022-12-29T07:36:47;99392.52;;;9.69;86.51
61478;BME280;47345;52.334;10.392;2022-12-29T07:39:18;99385.67;;;9.71;86.41
61478;BME280;47345;52.334;10.392;2022-12-29T07:41:48;99388.52;;;9.71;86.28
61478;BME280;47345;52.334;10.392;2022-12-29T07:44:19;99388.54;;;9.70;86.26
61478;BME280;47345;52.334;10.392;2022-12-29T07:46:49;99392.45;;;9.69;86.19
61478;BME280;47345;52.334;10.392;2022-12-29T07:49:23;99404.94;;;9.69;86.22
61478;BME280;47345;52.334;10.392;2022-12-29T07:51:54;99406.52;;;9.68;86.32
61478;BME280;47345;52.334;10.392;2022-12-29T07:54:25;99411.10;;;9.68;86.39
61478;BME280;47345;52.334;10.392;2022-12-29T07:56:55;99416.70;;;9.69;86.39
61478;BME280;47345;52.334;10.392;2022-12-29T07:59:27;99420.09;;;9.69;86.50
61478;BME280;47345;52.334;10.392;2022-12-29T08:01:57;99433.25;;;9.71;86.48
61478;BME280;47345;52.334;10.392;2022-12-29T08:04:28;99442.47;;;9.73;86.41
61478;BME280;47345;52.334;10.392;2022-12-29T08:06:59;99455.20;;;9.76;86.45
61478;BME280;47345;52.334;10.392;2022-12-29T08:09:30;99451.92;;;9.78;86.45
61478;BME280;47345;52.334;10.392;2022-12-29T08:12:01;99456.73;;;9.80;86.39
61478;BME280;47345;52.334;10.392;2022-12-29T08:14:31;99461.73;;;9.83;86.31
61478;BME280;47345;52.334;10.392;2022-12-29T08:17:02;99468.06;;;9.85;86.22
61478;BME280;47345;52.334;10.392;2022-12-29T08:19:33;99460.01;;;9.86;86.12
61478;BME280;47345;52.334;10.392;2022-12-29T08:22:04;99460.59;;;9.87;86.10
61478;BME280;47345;52.334;10.392;2022-12-29T08:24:34;99470.23;;;9.88;85.95
61478;BME280;47345;52.334;10.392;2022-12-29T08:27:05;99472.73;;;9.88;85.73
61478;BME280;47345;52.334;10.392;2022-12-29T08:29:48;99478.30;;;9.88;85.64
61478;BME280;47345;52.334;10.392;2022-12-29T08:32:19;99478.95;;;9.90;85.47
61478;BME280;47345;52.334;10.392;2022-12-29T08:34:50;99483.70;;;9.92;85.35
61478;BME280;47345;52.334;10.392;2022-12-29T08:37:20;99486.30;;;9.96;84.97
61478;BME280;47345;52.334;10.392;2022-12-29T08:39:59;99482.92;;;9.99;84.65
61478;BME280;47345;52.334;10.392;2022-12-29T08:42:33;99487.00;;;10.01;84.53
61478;BME280;47345;52.334;10.392;2022-12-29T08:45:04;99489.50;;;10.03;84.79
61478;BME280;47345;52.334;10.392;2022-12-29T08:47:35;99487.55;;;10.04;84.92
61478;BME280;47345;52.334;10.392;2022-12-29T08:50:07;99486.91;;;10.05;85.15
61478;BME280;47345;52.334;10.392;2022-12-29T08:52:38;99488.67;;;10.05;85.28
61478;BME280;47345;52.334;10.392;2022-12-29T08:55:10;99487.48;;;10.06;85.34
61478;BME280;47345;52.334;10.392;2022-12-29T08:57:40;99486.51;;;10.06;85.74
61478;BME280;47345;52.334;10.392;2022-12-29T09:00:13;99485.63;;;10.06;86.04
61478;BME280;47345;52.334;10.392;2022-12-29T09:02:43;99488.25;;;10.06;86.26
61478;BME280;47345;52.334;10.392;2022-12-29T09:05:15;99473.16;;;10.05;86.58
61478;BME280;47345;52.334;10.392;2022-12-29T09:07:46;99497.02;;;10.04;86.85
61478;BME280;47345;52.334;10.392;2022-12-29T09:10:17;99507.02;;;10.00;87.17
61478;BME280;47345;52.334;10.392;2022-12-29T09:12:49;99522.23;;;9.95;87.44
61478;BME280;47345;52.334;10.392;2022-12-29T09:15:20;99526.14;;;9.87;88.04
61478;BME280;47345;52.334;10.392;2022-12-29T09:17:50;99529.24;;;9.81;88.76
61478;BME280;47345;52.334;10.392;2022-12-29T09:20:20;99526.12;;;9.76;89.70
61478;BME280;47345;52.334;10.392;2022-12-29T09:22:51;99531.60;;;9.71;90.22
61478;BME280;47345;52.334;10.392;2022-12-29T09:25:23;99517.19;;;9.66;91.17
61478;BME280;47345;52.334;10.392;2022-12-29T09:27:54;99535.95;;;9.56;92.24
61478;BME280;47345;52.334;10.392;2022-12-29T09:30:25;99530.55;;;9.46;92.44
61478;BME280;47345;52.334;10.392;2022-12-29T09:32:56;99509.80;;;9.40;92.76
61478;BME280;47345;52.334;10.392;2022-12-29T09:35:26;99524.08;;;9.37;92.90
61478;BME280;47345;52.334;10.392;2022-12-29T09:37:57;99536.96;;;9.36;93.26
61478;BME280;47345;52.334;10.392;2022-12-29T09:40:30;99537.35;;;9.36;93.38
61478;BME280;47345;52.334;10.392;2022-12-29T09:43:11;99547.40;;;9.36;93.50
61478;BME280;47345;52.334;10.392;2022-12-29T09:45:50;99550.39;;;9.36;93.64
61478;BME280;47345;52.334;10.392;2022-12-29T09:48:25;99527.50;;;9.35;93.75
61478;BME280;47345;52.334;10.392;2022-12-29T09:51:00;99523.42;;;9.36;93.97
61478;BME280;47345;52.334;10.392;2022-12-29T09:53:38;99525.70;;;9.37;94.07
61478;BME280;47345;52.334;10.392;2022-12-29T09:56:15;99529.40;;;9.38;94.13
61478;BME280;47345;52.334;10.392;2022-12-29T09:58:51;99519.27;;;9.39;94.24
61478;BME280;47345;52.334;10.392;2022-12-29T10:01:30;99517.61;;;9.41;94.37
61478;BME280;47345;52.334;10.392;2022-12-29T10:04:03;99519.23;;;9.42;94.41
61478;BME280;47345;52.334;10.392;2022-12-29T10:06:39;99528.40;;;9.41;94.40
61478;BME280;47345;52.334;10.392;2022-12-29T10:09:36;99530.60;;;9.42;94.52
61478;BME280;47345;52.334;10.392;2022-12-29T10:12:20;99529.89;;;9.42;94.62
61478;BME280;47345;52.334;10.392;2022-12-29T10:15:04;99534.38;;;9.43;94.63
61478;BME280;47345;52.334;10.392;2022-12-29T10:17:47;99538.65;;;9.43;94.73
61478;BME280;47345;52.334;10.392;2022-12-29T10:20:27;99539.44;;;9.44;94.67
61478;BME280;47345;52.334;10.392;2022-12-29T10:23:14;99522.39;;;9.45;94.70
61478;BME280;47345;52.334;10.392;2022-12-29T10:25:52;99528.85;;;9.48;94.83
61478;BME280;47345;52.334;10.392;2022-12-29T10:28:35;99525.32;;;9.52;94.90
61478;BME280;47345;52.334;10.392;2022-12-29T10:31:11;99521.19;;;9.56;94.95
61478;BME280;47345;52.334;10.392;2022-12-29T10:33:44;99517.54;;;9.58;94.80
61478;BME280;47345;52.334;10.392;2022-12-29T10:36:20;99512.91;;;9.58;94.68
61478;BME280;47345;52.334;10.392;2022-12-29T10:39:03;99517.30;;;9.63;94.71
61478;BME280;47345;52.334;10.392;2022-12-29T10:41:40;99516.59;;;9.67;94.77
61478;BME280;47345;52.334;10.392;2022-12-29T10:44:16;99512.89;;;9.70;94.50
61478;BME280;47345;52.334;10.392;2022-12-29T10:46:57;99517.84;;;9.73;94.39
61478;BME280;47345;52.334;10.392;2022-12-29T10:49:32;99519.95;;;9.76;94.20
61478;BME280;47345;52.334;10.392;2022-12-29T10:52:05;99525.21;;;9.77;94.04
61478;BME280;47345;52.334;10.392;2022-12-29T10:54:42;99528.45;;;9.80;93.68
61478;BME280;47345;52.334;10.392;2022-12-29T10:57:24;99533.98;;;9.82;93.23
61478;BME280;47345;52.334;10.392;2022-12-29T10:59:56;99532.70;;;9.86;92.74
61478;BME280;47345;52.334;10.392;2022-12-29T11:02:41;99543.55;;;9.89;92.54
61478;BME280;47345;52.334;10.392;2022-12-29T11:05:21;99552.05;;;9.94;92.33
61478;BME280;47345;52.334;10.392;2022-12-29T11:07:55;99543.83;;;9.99;92.29
61478;BME280;47345;52.334;10.392;2022-12-29T11:10:36;99538.30;;;10.03;92.07
61478;BME280;47345;52.334;10.392;2022-12-29T11:13:15;99530.13;;;10.04;91.71
61478;BME280;47345;52.334;10.392;2022-12-29T11:15:47;99525.52;;;10.06;90.93
61478;BME280;47345;52.334;10.392;2022-12-29T11:18:24;99518.38;;;10.06;90.45
61478;BME280;47345;52.334;10.392;2022-12-29T11:20:56;99525.49;;;10.07;89.87
61478;BME280;47345;52.334;10.392;2022-12-29T11:23:31;99519.06;;;10.08;89.54
61478;BME280;47345;52.334;10.392;2022-12-29T11:26:15;99522.20;;;10.11;89.21
61478;BME280;47345;52.334;10.392;2022-12-29T11:28:47;99520.33;;;10.15;88.99
61478;BME280;47345;52.334;10.392;2022-12-29T11:31:21;99522.55;;;10.18;88.65
61478;BME280;47345;52.334;10.392;2022-12-29T11:33:52;99521.55;;;10.23;88.10
61478;BME280;47345;52.334;10.392;2022-12-29T11:36:24;99529.95;;;10.26;87.24
61478;BME280;47345;52.334;10.392;2022-12-29T11:38:56;99536.16;;;10.29;86.75
61478;BME280;47345;52.334;10.392;2022-12-29T11:41:29;99540.99;;;10.32;86.60
61478;BME280;47345;52.334;10.392;2022-12-29T11:44:04;99539.21;;;10.36;86.17
61478;BME280;47345;52.334;10.392;2022-12-29T11:46:37;99537.42;;;10.39;86.02
61478;BME280;47345;52.334;10.392;2022-12-29T11:49:16;99535.77;;;10.43;85.84
61478;BME280;47345;52.334;10.392;2022-12-29T11:51:51;99541.61;;;10.45;85.13
61478;BME280;47345;52.334;10.392;2022-12-29T11:54:27;99532.85;;;10.46;84.28
61478;BME280;47345;52.334;10.392;2022-12-29T11:57:11;99538.55;;;10.47;82.78
61478;BME280;47345;52.334;10.392;2022-12-29T11:59:44;99547.83;;;10.49;81.74
61478;BME280;47345;52.334;10.392;2022-12-29T12:02:34;99541.15;;;10.48;81.25
61478;BME280;47345;52.334;10.392;2022-12-29T12:05:16;99555.36;;;10.49;80.28
61478;BME280;47345;52.334;10.392;2022-12-29T12:07:52;99562.23;;;10.47;80.46
61478;BME280;47345;52.334;10.392;2022-12-29T12:10:29;99564.80;;;10.47;81.19
61478;BME280;47345;52.334;10.392;2022-12-29T12:13:08;99567.80;;;10.47;81.77
61478;BME280;47345;52.334;10.392;2022-12-29T12:15:46;99569.48;;;10.47;82.06
61478;BME280;47345;52.334;10.392;2022-12-29T12:18:32;99571.27;;;10.46;82.36
61478;BME280;47345;52.334;10.392;2022-12-29T12:21:10;99573.00;;;10.43;82.69
61478;BME280;47345;52.334;10.392;2022-12-29T12:23:52;99562.05;;;10.41;82.42
61478;BME280;47345;52.334;10.392;2022-12-29T12:26:32;99563.02;;;10.36;81.99
61478;BME280;47345;52.334;10.392;2022-12-29T12:29:12;99558.89;;;10.33;81.40
61478;BME280;47345;52.334;10.392;2022-12-29T12:31:47;99561.70;;;10.32;81.41
61478;BME280;47345;52.334;10.392;2022-12-29T12:34:24;99561.69;;;10.29;80.92
61478;BME280;47345;52.334;10.392;2022-12-29T12:37:14;99553.27;;;10.27;80.52
61478;BME280;47345;52.334;10.392;2022-12-29T12:39:47;99558.26;;;10.25;80.29
61478;BME280;47345;52.334;10.392;2022-12-29T12:42:32;99558.37;;;10.24;79.75
61478;BME280;47345;52.334;10.392;2022-12-29T12:45:25;99560.30;;;10.20;79.73
61478;BME280;47345;52.334;10.392;2022-12-29T12:48:05;99561.67;;;10.18;79.61
61478;BME280;47345;52.334;10.392;2022-12-29T12:50:49;99555.86;;;10.17;79.23
61478;BME280;47345;52.334;10.392;2022-12-29T12:53:40;99555.60;;;10.18;78.65
61478;BME280;47345;52.334;10.392;2022-12-29T12:56:33;99562.29;;;10.21;77.69
61478;BME280;47345;52.334;10.392;2022-12-29T12:59:16;99552.19;;;10.24;78.02
61478;BME280;47345;52.334;10.392;2022-12-29T13:01:54;99558.05;;;10.26;77.61
61478;BME280;47345;52.334;10.392;2022-12-29T13:04:46;99560.52;;;10.28;77.56
61478;BME280;47345;52.334;10.392;2022-12-29T13:07:29;99562.71;;;10.31;77.22
61478;BME280;47345;52.334;10.392;2022-12-29T13:10:19;99565.31;;;10.34;76.74
61478;BME280;47345;52.334;10.392;2022-12-29T13:12:57;99566.23;;;10.38;76.68
61478;BME280;47345;52.334;10.392;2022-12-29T13:15:43;99565.94;;;10.42;76.27
61478;BME280;47345;52.334;10.392;2022-12-29T13:18:24;99568.15;;;10.46;76.40
61478;BME280;47345;52.334;10.392;2022-12-29T13:21:03;99566.92;;;10.47;76.34
61478;BME280;47345;52.334;10.392;2022-12-29T13:23:40;99570.10;;;10.50;76.00
61478;BME280;47345;52.334;10.392;2022-12-29T13:26:16;99570.58;;;10.52;76.21
61478;BME280;47345;52.334;10.392;2022-12-29T13:28:55;99574.36;;;10.52;76.49
61478;BME280;47345;52.334;10.392;2022-12-29T13:31:35;99573.65;;;10.52;76.57
61478;BME280;47345;52.334;10.392;2022-12-29T13:34:16;99576.02;;;10.52;76.37
61478;BME280;47345;52.334;10.392;2022-12-29T13:36:54;99582.54;;;10.51;76.38
61478;BME280;47345;52.334;10.392;2022-12-29T13:39:30;99581.12;;;10.51;76.24